createdAt,value
2023-05-11T00:00:04.452Z,98394.34
2023-05-11T00:01:09.488Z,98392.44
2023-05-11T00:02:13.148Z,98395.94
2023-05-11T00:03:15.297Z,98398.66
2023-05-11T00:04:17.797Z,98393.53
2023-05-11T00:05:20.060Z,98392.16
2023-05-11T00:06:21.931Z,98390.03
2023-05-11T00:07:24.284Z,98395.44
2023-05-11T00:08:26.859Z,98392.22
2023-05-11T00:09:28.786Z,98396.53
2023-05-11T00:10:31.390Z,98395.72
2023-05-11T00:11:33.320Z,98394.66
2023-05-11T00:12:35.159Z,98400.63
2023-05-11T00:13:37.251Z,98386.00
2023-05-11T00:14:39.214Z,98391.41
2023-05-11T00:15:41.247Z,98389.50
2023-05-11T00:16:43.171Z,98395.22
2023-05-11T00:17:45.423Z,98391.72
2023-05-11T00:18:49.053Z,98388.53
2023-05-11T00:19:51.144Z,98390.13
2023-05-11T00:20:53.149Z,98396.63
2023-05-11T00:21:55.108Z,98395.53
2023-05-11T00:22:57.001Z,98387.72
2023-05-11T00:23:58.930Z,98381.53
2023-05-11T00:25:00.915Z,98392.03
2023-05-11T00:26:03.427Z,98387.22
2023-05-11T00:27:06.124Z,98400.44
2023-05-11T00:28:08.077Z,98387.22
2023-05-11T00:29:09.880Z,98384.53
2023-05-11T00:30:13.450Z,98386.13
2023-05-11T00:31:15.430Z,98383.72
2023-05-11T00:32:17.413Z,98394.53
2023-05-11T00:33:19.552Z,98391.31
2023-05-11T00:34:21.449Z,98386.72
2023-05-11T00:35:23.872Z,98381.63
2023-05-11T00:36:25.770Z,98380.00
2023-05-11T00:37:27.657Z,98389.72
2023-05-11T00:38:29.608Z,98386.19
2023-05-11T00:39:31.608Z,98382.19
2023-05-11T00:40:33.897Z,98383.00
2023-05-11T00:41:36.514Z,98380.00
2023-05-11T00:42:38.490Z,98392.19
2023-05-11T00:43:40.925Z,98386.78
2023-05-11T00:44:43.315Z,98382.19
2023-05-11T00:45:48.371Z,98382.50
2023-05-11T00:46:50.296Z,98382.50
2023-05-11T00:47:52.237Z,98384.41
2023-05-11T00:48:54.551Z,98382.78
2023-05-11T00:49:57.592Z,98382.78
2023-05-11T00:51:00.791Z,98379.28
2023-05-11T00:52:03.226Z,98378.19
2023-05-11T00:53:05.312Z,98380.09
2023-05-11T00:54:13.119Z,98382.28
2023-05-11T00:55:19.121Z,98378.50
2023-05-11T00:56:21.937Z,98376.09
2023-05-11T00:57:23.982Z,98371.78
2023-05-11T00:58:25.936Z,98376.41
2023-05-11T00:59:28.104Z,98374.50
2023-05-11T01:00:29.940Z,98379.91
2023-05-11T01:01:31.870Z,98376.66
2023-05-11T01:02:34.372Z,98378.56
2023-05-11T01:03:36.878Z,98371.56
2023-05-11T01:04:38.977Z,98375.06
2023-05-11T01:06:17.431Z,98377.19
2023-05-11T01:07:44.267Z,98376.41
2023-05-11T01:08:56.934Z,98375.38
2023-05-11T01:10:14.444Z,98383.47
2023-05-11T01:11:34.028Z,98374.56
2023-05-11T01:12:53.052Z,98381.38
2023-05-11T01:14:12.735Z,98376.75
2023-05-11T01:15:30.348Z,98380.56
2023-05-11T01:16:40.498Z,98382.75
2023-05-11T01:18:07.040Z,98380.56
2023-05-11T01:19:18.431Z,98374.97
2023-05-11T01:20:29.401Z,98376.03
2023-05-11T01:21:33.890Z,98372.84
2023-05-11T01:23:07.066Z,98371.72
2023-05-11T01:24:45.882Z,98376.03
2023-05-11T01:26:16.929Z,98381.72
2023-05-11T01:27:38.860Z,98378.03
2023-05-11T01:29:14.451Z,98377.72
2023-05-11T01:30:49.591Z,98385.84
2023-05-11T01:31:56.618Z,98378.94
2023-05-11T01:33:07.804Z,98382.69
2023-05-11T01:34:21.699Z,98378.09
2023-05-11T01:35:26.828Z,98378.41
2023-05-11T01:36:39.380Z,98381.09
2023-05-11T01:37:47.834Z,98381.09
2023-05-11T01:38:54.075Z,98377.91
2023-05-11T01:40:01.934Z,98373.59
2023-05-11T01:41:19.873Z,98367.91
2023-05-11T01:42:38.683Z,98374.91
2023-05-11T01:43:45.185Z,98372.50
2023-05-11T01:44:52.051Z,98365.50
2023-05-11T01:46:00.697Z,98373.59
2023-05-11T01:47:06.531Z,98367.69
2023-05-11T01:48:19.800Z,98370.09
2023-05-11T01:49:22.242Z,98368.50
2023-05-11T01:50:26.250Z,98369.91
2023-05-11T01:51:34.657Z,98366.09
2023-05-11T01:52:40.035Z,98374.50
2023-05-11T01:53:45.052Z,98368.00
2023-05-11T01:54:49.998Z,98365.00
2023-05-11T01:55:55.518Z,98364.50
2023-05-11T01:57:00.531Z,98363.94
2023-05-11T01:58:06.762Z,98362.91
2023-05-11T01:59:12.148Z,98365.59
2023-05-11T02:00:17.413Z,98364.50
2023-05-11T02:01:20.644Z,98373.94
2023-05-11T02:02:25.598Z,98365.03
2023-05-11T02:03:31.410Z,98369.63
2023-05-11T02:04:36.617Z,98378.53
2023-05-11T02:05:41.977Z,98370.44
2023-05-11T02:06:48.423Z,98376.13
2023-05-11T02:07:54.399Z,98370.44
2023-05-11T02:08:58.413Z,98369.94
2023-05-11T02:10:01.152Z,98375.31
2023-05-11T02:11:04.404Z,98369.94
2023-05-11T02:12:08.793Z,98365.63
2023-05-11T02:13:11.736Z,98372.63
2023-05-11T02:14:17.580Z,98377.22
2023-05-11T02:15:25.490Z,98376.44
2023-05-11T02:16:29.505Z,98374.03
2023-05-11T02:17:34.288Z,98377.53
2023-05-11T02:18:41.958Z,98372.94
2023-05-11T02:19:45.495Z,98379.41
2023-05-11T02:20:48.306Z,98377.03
2023-05-11T02:21:53.601Z,98381.31
2023-05-11T02:22:57.514Z,98378.63
2023-05-11T02:24:06.794Z,98381.31
2023-05-11T02:25:11.035Z,98374.63
2023-05-11T02:26:16.681Z,98379.22
2023-05-11T02:27:18.964Z,98380.81
2023-05-11T02:28:21.136Z,98373.28
2023-05-11T02:29:23.357Z,98380.81
2023-05-11T02:30:29.315Z,98379.47
2023-05-11T02:31:40.289Z,98376.78
2023-05-11T02:32:54.886Z,98380.81
2023-05-11T02:34:21.167Z,98383.53
2023-05-11T02:35:29.359Z,98382.19
2023-05-11T02:36:37.580Z,98384.09
2023-05-11T02:37:46.954Z,98395.16
2023-05-11T02:38:55.325Z,98388.19
2023-05-11T02:40:09.432Z,98391.66
2023-05-11T02:41:18.347Z,98386.28
2023-05-11T02:42:23.733Z,98380.38
2023-05-11T02:43:32.578Z,98390.06
2023-05-11T02:44:39.768Z,98382.78
2023-05-11T02:45:46.500Z,98377.97
2023-05-11T02:46:51.650Z,98374.78
2023-05-11T02:47:56.729Z,98381.78
2023-05-11T02:49:02.701Z,98373.97
2023-05-11T02:50:07.824Z,98373.97
2023-05-11T02:51:14.259Z,98375.56
2023-05-11T02:52:17.959Z,98376.16
2023-05-11T02:53:24.184Z,98369.94
2023-05-11T02:54:28.703Z,98382.63
2023-05-11T02:55:32.090Z,98372.94
2023-05-11T02:56:34.365Z,98375.63
2023-05-11T02:57:36.404Z,98379.94
2023-05-11T02:58:39.113Z,98376.72
2023-05-11T02:59:41.618Z,98377.81
2023-05-11T03:00:43.985Z,98376.72
2023-05-11T03:01:46.472Z,98374.31
2023-05-11T03:02:48.921Z,98377.81
2023-05-11T03:03:51.353Z,98370.03
2023-05-11T03:04:53.789Z,98377.81
2023-05-11T03:05:55.666Z,98373.53
2023-05-11T03:06:57.806Z,98371.94
2023-05-11T03:08:00.693Z,98372.72
2023-05-11T03:09:03.189Z,98369.22
2023-05-11T03:10:06.337Z,98361.13
2023-05-11T03:11:11.380Z,98374.63
2023-05-11T03:12:15.057Z,98362.53
2023-05-11T03:13:20.589Z,98364.94
2023-05-11T03:14:23.518Z,98364.94
2023-05-11T03:15:27.011Z,98368.44
2023-05-11T03:16:31.279Z,98366.53
2023-05-11T03:17:34.716Z,98363.34
2023-05-11T03:18:37.327Z,98364.44
2023-05-11T03:19:42.036Z,98367.13
2023-05-11T03:20:46.332Z,98367.94
2023-05-11T03:21:51.770Z,98371.72
2023-05-11T03:22:55.641Z,98372.53
2023-05-11T03:23:58.809Z,98371.72
2023-05-11T03:25:04.065Z,98369.81
2023-05-11T03:26:07.617Z,98369.81
2023-05-11T03:27:11.801Z,98373.63
2023-05-11T03:28:14.974Z,98375.50
2023-05-11T03:29:18.927Z,98363.09
2023-05-11T03:30:23.359Z,98363.88
2023-05-11T03:31:25.394Z,98368.50
2023-05-11T03:32:27.790Z,98365.00
2023-05-11T03:33:29.925Z,98370.13
2023-05-11T03:34:32.714Z,98363.09
2023-05-11T03:35:37.616Z,98362.28
2023-05-11T03:36:40.975Z,98366.09
2023-05-11T03:37:45.100Z,98367.69
2023-05-11T03:38:48.860Z,98358.78
2023-05-11T03:39:57.226Z,98351.50
2023-05-11T03:41:01.341Z,98358.00
2023-05-11T03:42:05.534Z,98358.00
2023-05-11T03:43:12.721Z,98358.00
2023-05-11T03:44:19.996Z,98358.00
2023-05-11T03:45:23.552Z,98359.09
2023-05-11T03:46:27.034Z,98362.88
2023-05-11T03:47:32.351Z,98362.88
2023-05-11T03:48:34.630Z,98356.69
2023-05-11T03:49:41.235Z,98362.88
2023-05-11T03:50:44.481Z,98360.47
2023-05-11T03:51:47.856Z,98358.09
2023-05-11T03:52:50.753Z,98359.19
2023-05-11T03:53:52.815Z,98359.69
2023-05-11T03:54:54.916Z,98362.69
2023-05-11T03:55:57.455Z,98362.97
2023-05-11T03:56:59.415Z,98360.28
2023-05-11T03:58:03.011Z,98360.53
2023-05-11T03:59:07.493Z,98359.47
2023-05-11T04:00:11.779Z,98361.88
2023-05-11T04:01:14.577Z,98360.28
2023-05-11T04:02:17.105Z,98362.44
2023-05-11T04:03:19.389Z,98355.44
2023-05-11T04:04:30.267Z,98361.38
2023-05-11T04:05:32.486Z,98365.13
2023-05-11T04:06:34.537Z,98358.94
2023-05-11T04:07:38.665Z,98365.44
2023-05-11T04:08:40.543Z,98362.72
2023-05-11T04:09:42.576Z,98359.22
2023-05-11T04:10:44.447Z,98363.03
2023-05-11T04:11:46.421Z,98358.72
2023-05-11T04:12:48.399Z,98366.53
2023-05-11T04:13:50.231Z,98363.31
2023-05-11T04:14:52.331Z,98359.03
2023-05-11T04:15:54.461Z,98366.31
2023-05-11T04:16:56.393Z,98365.22
2023-05-11T04:17:58.257Z,98368.72
2023-05-11T04:19:00.529Z,98364.13
2023-05-11T04:20:02.494Z,98363.63
2023-05-11T04:21:06.431Z,98357.72
2023-05-11T04:22:08.382Z,98365.81
2023-05-11T04:23:10.598Z,98360.41
2023-05-11T04:24:12.552Z,98361.22
2023-05-11T04:25:14.688Z,98360.91
2023-05-11T04:26:16.563Z,98360.41
2023-05-11T04:27:18.432Z,98360.41
2023-05-11T04:28:22.132Z,98364.22
2023-05-11T04:29:24.113Z,98360.97
2023-05-11T04:30:26.043Z,98359.09
2023-05-11T04:31:27.967Z,98370.97
2023-05-11T04:32:30.476Z,98365.56
2023-05-11T04:33:32.395Z,98359.38
2023-05-11T04:34:34.947Z,98366.66
2023-05-11T04:35:40.131Z,98362.88
2023-05-11T04:36:42.384Z,98362.06
2023-05-11T04:37:44.317Z,98364.78
2023-05-11T04:38:46.219Z,98362.38
2023-05-11T04:39:48.136Z,98362.38
2023-05-11T04:40:50.681Z,98362.66
2023-05-11T04:41:52.687Z,98360.47
2023-05-11T04:42:54.943Z,98365.88
2023-05-11T04:43:56.796Z,98357.78
2023-05-11T04:44:58.721Z,98366.16
2023-05-11T04:46:00.741Z,98363.72
2023-05-11T04:47:02.632Z,98361.56
2023-05-11T04:48:05.219Z,98362.66
2023-05-11T04:49:07.452Z,98365.34
2023-05-11T04:50:09.916Z,98369.13
2023-05-11T04:51:11.832Z,98356.72
2023-05-11T04:52:13.747Z,98357.81
2023-05-11T04:53:15.969Z,98360.53
2023-05-11T04:54:17.976Z,98357.28
2023-05-11T04:55:19.888Z,98359.16
2023-05-11T04:56:21.829Z,98357.31
2023-05-11T04:57:23.864Z,98357.81
2023-05-11T04:58:26.105Z,98359.44
2023-05-11T04:59:27.965Z,98364.31
2023-05-11T05:00:29.962Z,98356.22
2023-05-11T05:01:31.931Z,98361.91
2023-05-11T05:02:34.083Z,98368.09
2023-05-11T05:03:36.114Z,98360.03
2023-05-11T05:04:38.043Z,98356.78
2023-05-11T05:05:40.144Z,98362.72
2023-05-11T05:06:42.328Z,98360.03
2023-05-11T05:07:44.365Z,98355.69
2023-05-11T05:08:46.146Z,98362.19
2023-05-11T05:09:47.985Z,98362.19
2023-05-11T05:10:49.850Z,98364.88
2023-05-11T05:11:51.682Z,98373.25
2023-05-11T05:12:53.579Z,98373.25
2023-05-11T05:13:55.768Z,98363.28
2023-05-11T05:14:57.678Z,98367.88
2023-05-11T05:15:59.545Z,98369.47
2023-05-11T05:17:01.633Z,98372.16
2023-05-11T05:18:03.748Z,98374.34
2023-05-11T05:19:05.770Z,98368.66
2023-05-11T05:20:08.673Z,98370.84
2023-05-11T05:21:10.966Z,98372.44
2023-05-11T05:22:12.866Z,98370.84
2023-05-11T05:23:14.790Z,98373.53
2023-05-11T05:24:16.950Z,98375.44
2023-05-11T05:25:19.033Z,98378.13
2023-05-11T05:26:21.743Z,98374.66
2023-05-11T05:27:23.615Z,98376.25
2023-05-11T05:28:25.500Z,98376.84
2023-05-11T05:29:27.374Z,98374.94
2023-05-11T05:30:29.363Z,98373.03
2023-05-11T05:31:31.558Z,98384.63
2023-05-11T05:32:33.504Z,98375.22
2023-05-11T05:33:35.745Z,98380.91
2023-05-11T05:34:37.628Z,98377.63
2023-05-11T05:35:39.585Z,98382.53
2023-05-11T05:36:41.841Z,98383.31
2023-05-11T05:37:43.848Z,98378.22
2023-05-11T05:38:45.717Z,98386.81
2023-05-11T05:39:48.510Z,98383.59
2023-05-11T05:40:50.755Z,98389.00
2023-05-11T05:41:52.795Z,98382.53
2023-05-11T05:42:54.998Z,98390.91
2023-05-11T05:43:56.909Z,98386.56
2023-05-11T05:44:58.897Z,98382.81
2023-05-11T05:46:00.833Z,98389.25
2023-05-11T05:47:02.861Z,98384.97
2023-05-11T05:48:06.207Z,98391.16
2023-05-11T05:49:08.104Z,98388.19
2023-05-11T05:50:10.352Z,98389.25
2023-05-11T05:51:12.444Z,98392.25
2023-05-11T05:52:14.450Z,98390.91
2023-05-11T05:53:16.388Z,98388.19
2023-05-11T05:54:18.315Z,98391.97
2023-05-11T05:55:20.294Z,98393.06
2023-05-11T05:56:22.777Z,98388.47
2023-05-11T05:57:25.216Z,98391.97
2023-05-11T05:58:27.084Z,98382.28
2023-05-11T05:59:28.978Z,98396.84
2023-05-11T06:00:31.226Z,98398.75
2023-05-11T06:01:33.302Z,98396.03
2023-05-11T06:02:35.576Z,98401.72
2023-05-11T06:03:37.663Z,98393.34
2023-05-11T06:04:39.885Z,98388.25
2023-05-11T06:05:42.376Z,98399.31
2023-05-11T06:06:44.641Z,98397.94
2023-05-11T06:07:57.980Z,98389.84
2023-05-11T06:09:09.392Z,98397.94
2023-05-11T06:10:11.196Z,98404.13
2023-05-11T06:11:13.195Z,98406.53
2023-05-11T06:12:15.389Z,98410.91
2023-05-11T06:13:17.275Z,98408.22
2023-05-11T06:14:19.168Z,98400.13
2023-05-11T06:15:21.571Z,98406.31
2023-05-11T06:16:25.483Z,98409.81
2023-05-11T06:17:28.464Z,98406.31
2023-05-11T06:18:30.595Z,98403.91
2023-05-11T06:19:32.690Z,98407.41
2023-05-11T06:20:34.769Z,98408.22
2023-05-11T06:21:36.768Z,98408.50
2023-05-11T06:22:38.925Z,98407.41
2023-05-11T06:23:40.772Z,98406.31
2023-05-11T06:24:42.602Z,98400.94
2023-05-11T06:25:44.824Z,98404.72
2023-05-11T06:26:46.764Z,98392.84
2023-05-11T06:27:48.596Z,98405.00
2023-05-11T06:28:52.314Z,98404.72
2023-05-11T06:29:54.404Z,98406.59
2023-05-11T06:30:59.621Z,98403.63
2023-05-11T06:32:02.116Z,98406.31
2023-05-11T06:33:04.481Z,98401.44
2023-05-11T06:34:06.389Z,98410.09
2023-05-11T06:35:08.904Z,98406.59
2023-05-11T06:36:11.610Z,98405.50
2023-05-11T06:37:20.280Z,98407.41
2023-05-11T06:38:22.288Z,98409.31
2023-05-11T06:39:24.075Z,98408.22
2023-05-11T06:40:26.403Z,98407.41
2023-05-11T06:41:28.556Z,98400.94
2023-05-11T06:42:30.571Z,98400.94
2023-05-11T06:43:32.766Z,98407.13
2023-05-11T06:44:34.829Z,98408.22
2023-05-11T06:45:37.602Z,98409.81
2023-05-11T06:46:39.627Z,98409.81
2023-05-11T06:47:42.094Z,98402.22
2023-05-11T06:48:44.059Z,98407.13
2023-05-11T06:49:46.105Z,98408.72
2023-05-11T06:50:47.928Z,98407.91
2023-05-11T06:51:49.813Z,98402.22
2023-05-11T06:52:52.174Z,98399.53
2023-05-11T06:53:54.045Z,98402.22
2023-05-11T06:54:56.681Z,98407.06
2023-05-11T06:55:58.595Z,98406.53
2023-05-11T06:57:00.584Z,98413.00
2023-05-11T06:58:02.524Z,98406.25
2023-05-11T06:59:04.430Z,98407.34
2023-05-11T07:00:07.629Z,98406.25
2023-05-11T07:01:10.970Z,98408.13
2023-05-11T07:02:12.949Z,98403.84
2023-05-11T07:03:15.308Z,98409.78
2023-05-11T07:04:17.343Z,98408.69
2023-05-11T07:05:19.483Z,98405.19
2023-05-11T07:06:21.671Z,98399.78
2023-05-11T07:07:24.058Z,98408.69
2023-05-11T07:08:25.975Z,98409.78
2023-05-11T07:09:28.161Z,98407.59
2023-05-11T07:10:31.098Z,98408.13
2023-05-11T07:11:33.045Z,98415.16
2023-05-11T07:12:35.047Z,98414.56
2023-05-11T07:13:36.872Z,98403.78
2023-05-11T07:14:38.678Z,98414.56
2023-05-11T07:15:40.549Z,98419.16
2023-05-11T07:16:42.774Z,98411.88
2023-05-11T07:17:48.104Z,98422.66
2023-05-11T07:18:50.292Z,98418.88
2023-05-11T07:19:52.620Z,98415.59
2023-05-11T07:20:54.627Z,98414.00
2023-05-11T07:21:56.808Z,98408.59
2023-05-11T07:22:59.672Z,98413.47
2023-05-11T07:24:01.674Z,98415.59
2023-05-11T07:25:04.917Z,98417.47
2023-05-11T07:26:09.979Z,98405.91
2023-05-11T07:27:12.068Z,98415.59
2023-05-11T07:28:14.211Z,98420.69
2023-05-11T07:29:16.209Z,98409.91
2023-05-11T07:30:18.846Z,98417.47
2023-05-11T07:31:21.415Z,98416.38
2023-05-11T07:32:23.446Z,98418.28
2023-05-11T07:33:25.713Z,98418.28
2023-05-11T07:34:27.825Z,98418.78
2023-05-11T07:35:30.143Z,98421.22
2023-05-11T07:36:32.530Z,98420.41
2023-05-11T07:37:34.741Z,98416.63
2023-05-11T07:38:36.728Z,98413.94
2023-05-11T07:39:38.567Z,98413.13
2023-05-11T07:40:40.861Z,98416.63
2023-05-11T07:41:43.004Z,98420.41
2023-05-11T07:42:45.068Z,98411.75
2023-05-11T07:43:46.973Z,98422.84
2023-05-11T07:44:48.921Z,98427.94
2023-05-11T07:45:50.909Z,98412.84
2023-05-11T07:46:52.876Z,98419.84
2023-05-11T07:47:54.845Z,98419.84
2023-05-11T07:49:11.272Z,98416.06
2023-05-11T07:50:17.697Z,98412.25
2023-05-11T07:51:19.593Z,98417.66
2023-05-11T07:52:21.495Z,98408.50
2023-05-11T07:53:23.388Z,98412.81
2023-05-11T07:54:26.255Z,98414.16
2023-05-11T07:55:30.546Z,98413.09
2023-05-11T07:56:32.470Z,98406.88
2023-05-11T07:57:34.491Z,98412.50
2023-05-11T07:58:36.635Z,98417.09
2023-05-11T07:59:38.548Z,98413.31
2023-05-11T08:00:40.547Z,98417.09
2023-05-11T08:01:42.619Z,98409.00
2023-05-11T08:02:44.695Z,98407.91
2023-05-11T08:03:47.923Z,98409.81
2023-05-11T08:04:50.288Z,98409.00
2023-05-11T08:05:52.423Z,98410.59
2023-05-11T08:06:54.585Z,98416.53
2023-05-11T08:07:56.516Z,98416.53
2023-05-11T08:08:58.582Z,98414.66
2023-05-11T08:10:00.476Z,98419.25
2023-05-11T08:11:03.698Z,98420.53
2023-05-11T08:12:05.832Z,98419.75
2023-05-11T08:13:08.361Z,98410.06
2023-05-11T08:14:10.515Z,98422.94
2023-05-11T08:15:12.458Z,98412.97
2023-05-11T08:16:15.237Z,98415.38
2023-05-11T08:17:17.506Z,98415.66
2023-05-11T08:18:19.491Z,98416.47
2023-05-11T08:19:21.430Z,98416.16
2023-05-11T08:20:23.600Z,98409.38
2023-05-11T08:21:26.363Z,98415.88
2023-05-11T08:22:28.292Z,98418.56
2023-05-11T08:23:30.236Z,98412.09
2023-05-11T08:24:32.515Z,98409.38
2023-05-11T08:25:34.968Z,98409.09
2023-05-11T08:26:38.166Z,98414.47
2023-05-11T08:27:40.245Z,98414.47
2023-05-11T08:28:42.175Z,98410.97
2023-05-11T08:29:44.760Z,98415.88
2023-05-11T08:30:46.870Z,98408.38
2023-05-11T08:31:50.112Z,98414.56
2023-05-11T08:32:58.693Z,98412.75
2023-05-11T08:34:01.213Z,98418.16
2023-05-11T08:35:04.356Z,98421.94
2023-05-11T08:36:07.418Z,98414.34
2023-05-11T08:37:09.374Z,98418.41
2023-05-11T08:38:11.314Z,98417.59
2023-05-11T08:39:13.238Z,98417.34
2023-05-11T08:40:15.236Z,98424.91
2023-05-11T08:41:17.160Z,98423.00
2023-05-11T08:42:21.045Z,98424.63
2023-05-11T08:43:26.404Z,98422.75
2023-05-11T08:44:33.041Z,98419.75
2023-05-11T08:45:38.686Z,98427.53
2023-05-11T08:46:47.102Z,98427.53
2023-05-11T08:47:49.953Z,98417.56
2023-05-11T08:48:52.659Z,98416.75
2023-05-11T08:49:55.221Z,98418.66
2023-05-11T08:50:57.760Z,98416.75
2023-05-11T08:52:05.988Z,98421.84
2023-05-11T08:53:09.011Z,98416.75
2023-05-11T08:54:11.197Z,98421.06
2023-05-11T08:55:14.066Z,98422.38
2023-05-11T08:56:17.450Z,98419.16
2023-05-11T08:57:20.363Z,98418.06
2023-05-11T08:58:22.945Z,98420.75
2023-05-11T08:59:29.113Z,98428.25
2023-05-11T09:00:32.992Z,98416.16
2023-05-11T09:01:37.448Z,98419.66
2023-05-11T09:02:40.481Z,98427.47
2023-05-11T09:03:43.684Z,98425.84
2023-05-11T09:04:48.625Z,98428.56
2023-05-11T09:05:52.290Z,98419.38
2023-05-11T09:06:56.482Z,98427.16
2023-05-11T09:08:04.767Z,98422.56
2023-05-11T09:09:06.783Z,98425.56
2023-05-11T09:10:11.470Z,98422.56
2023-05-11T09:11:15.502Z,98421.78
2023-05-11T09:12:17.999Z,98425.56
2023-05-11T09:13:20.134Z,98425.28
2023-05-11T09:14:27.040Z,98426.91
2023-05-11T09:15:29.388Z,98427.97
2023-05-11T09:16:37.287Z,98433.09
2023-05-11T09:17:39.625Z,98431.19
2023-05-11T09:18:54.507Z,98431.72
2023-05-11T09:20:06.723Z,98426.59
2023-05-11T09:21:08.666Z,98428.25
2023-05-11T09:22:10.932Z,98435.34
2023-05-11T09:23:17.836Z,98433.72
2023-05-11T09:24:21.541Z,98426.22
2023-05-11T09:25:25.616Z,98428.41
2023-05-11T09:26:29.879Z,98435.97
2023-05-11T09:27:32.479Z,98429.28
2023-05-11T09:28:36.035Z,98428.44
2023-05-11T09:29:38.234Z,98439.75
2023-05-11T09:30:40.091Z,98434.38
2023-05-11T09:31:47.772Z,98433.28
2023-05-11T09:32:59.579Z,98431.88
2023-05-11T09:34:20.170Z,98437.53
2023-05-11T09:35:33.926Z,98435.41
2023-05-11T09:36:36.312Z,98423.00
2023-05-11T09:37:38.383Z,98439.97
2023-05-11T09:38:40.470Z,98428.13
2023-05-11T09:39:59.367Z,98429.44
2023-05-11T09:41:04.903Z,98434.25
2023-05-11T09:42:21.756Z,98434.75
2023-05-11T09:43:27.068Z,98438.53
2023-05-11T09:44:32.297Z,98432.06
2023-05-11T09:45:42.847Z,98429.88
2023-05-11T09:46:46.122Z,98436.34
2023-05-11T09:47:49.221Z,98435.25
2023-05-11T09:49:03.352Z,98434.69
2023-05-11T09:50:17.734Z,98436.00
2023-05-11T09:51:37.032Z,98433.03
2023-05-11T09:52:53.894Z,98434.63
2023-05-11T09:53:56.048Z,98424.41
2023-05-11T09:55:10.178Z,98426.81
2023-05-11T09:56:14.104Z,98429.72
2023-05-11T09:57:30.686Z,98425.66
2023-05-11T09:58:48.409Z,98427.28
2023-05-11T09:59:51.086Z,98429.47
2023-05-11T10:00:54.080Z,98427.84
2023-05-11T10:01:56.109Z,98424.56
2023-05-11T10:03:04.568Z,98432.66
2023-05-11T10:04:21.134Z,98429.16
2023-05-11T10:05:24.780Z,98429.69
2023-05-11T10:06:26.904Z,98430.78
2023-05-11T10:07:29.990Z,98430.78
2023-05-11T10:08:35.880Z,98430.47
2023-05-11T10:09:38.876Z,98433.69
2023-05-11T10:10:41.091Z,98434.47
2023-05-11T10:11:47.057Z,98428.00
2023-05-11T10:12:49.321Z,98435.00
2023-05-11T10:13:52.793Z,98428.78
2023-05-11T10:15:10.167Z,98427.13
2023-05-11T10:16:16.425Z,98425.00
2023-05-11T10:17:19.541Z,98426.59
2023-05-11T10:18:21.880Z,98430.13
2023-05-11T10:19:23.899Z,98429.28
2023-05-11T10:20:26.773Z,98427.13
2023-05-11T10:21:29.440Z,98426.09
2023-05-11T10:22:32.282Z,98433.34
2023-05-11T10:23:36.319Z,98430.34
2023-05-11T10:24:39.536Z,98426.84
2023-05-11T10:25:42.250Z,98425.25
2023-05-11T10:26:44.852Z,98431.13
2023-05-11T10:27:50.137Z,98420.34
2023-05-11T10:28:53.583Z,98437.34
2023-05-11T10:29:59.286Z,98431.94
2023-05-11T10:31:03.985Z,98435.94
2023-05-11T10:32:08.627Z,98430.84
2023-05-11T10:33:12.002Z,98425.16
2023-05-11T10:34:15.359Z,98425.75
2023-05-11T10:35:18.271Z,98424.66
2023-05-11T10:36:23.601Z,98433.25
2023-05-11T10:37:26.672Z,98429.44
2023-05-11T10:38:28.656Z,98430.53
2023-05-11T10:39:31.932Z,98422.44
2023-05-11T10:40:42.991Z,98429.94
2023-05-11T10:42:33.787Z,98429.91
2023-05-11T10:44:04.193Z,98426.19
2023-05-11T10:45:15.451Z,98424.06
2023-05-11T10:47:07.978Z,98424.00
2023-05-11T10:48:10.196Z,98421.66
2023-05-11T10:49:56.856Z,98422.94
2023-05-11T10:51:32.409Z,98423.75
2023-05-11T10:53:10.377Z,98417.00
2023-05-11T10:54:40.150Z,98421.59
2023-05-11T10:56:22.334Z,98416.69
2023-05-11T10:58:09.528Z,98420.50
2023-05-11T11:00:09.249Z,98418.59
2023-05-11T11:01:46.722Z,98416.19
2023-05-11T11:02:48.896Z,98425.44
2023-05-11T11:04:05.556Z,98422.16
2023-05-11T11:05:10.818Z,98419.75
2023-05-11T11:06:26.135Z,98424.56
2023-05-11T11:07:28.588Z,98415.16
2023-05-11T11:08:58.352Z,98417.19
2023-05-11T11:10:06.357Z,98417.00
2023-05-11T11:11:51.350Z,98418.50
2023-05-11T11:13:11.322Z,98417.41
2023-05-11T11:14:16.055Z,98416.59
2023-05-11T11:15:18.138Z,98414.22
2023-05-11T11:16:22.276Z,98418.50
2023-05-11T11:17:29.402Z,98415.22
2023-05-11T11:18:33.542Z,98417.91
2023-05-11T11:19:35.790Z,98413.09
2023-05-11T11:20:49.070Z,98417.09
2023-05-11T11:21:51.356Z,98413.28
2023-05-11T11:22:53.359Z,98417.38
2023-05-11T11:23:55.713Z,98413.28
2023-05-11T11:24:57.733Z,98410.28
2023-05-11T11:26:00.777Z,98410.78
2023-05-11T11:27:03.529Z,98411.31
2023-05-11T11:28:05.549Z,98408.09
2023-05-11T11:29:11.658Z,98406.13
2023-05-11T11:30:21.071Z,98405.31
2023-05-11T11:31:23.666Z,98405.31
2023-05-11T11:32:26.962Z,98402.31
2023-05-11T11:33:33.782Z,98407.13
2023-05-11T11:34:36.827Z,98407.13
2023-05-11T11:35:42.275Z,98405.72
2023-05-11T11:36:58.690Z,98402.75
2023-05-11T11:38:03.184Z,98403.84
2023-05-11T11:39:05.580Z,98404.94
2023-05-11T11:40:14.818Z,98411.13
2023-05-11T11:41:29.843Z,98411.88
2023-05-11T11:42:32.755Z,98411.06
2023-05-11T11:43:45.708Z,98404.56
2023-05-11T11:44:48.565Z,98392.47
2023-05-11T11:45:55.536Z,98404.56
2023-05-11T11:47:19.821Z,98404.28
2023-05-11T11:48:36.062Z,98407.47
2023-05-11T11:49:43.758Z,98402.38
2023-05-11T11:50:48.757Z,98409.97
2023-05-11T11:51:51.247Z,98399.97
2023-05-11T11:52:53.078Z,98402.38
2023-05-11T11:53:54.982Z,98406.16
2023-05-11T11:55:02.091Z,98408.56
2023-05-11T11:56:05.646Z,98403.16
2023-05-11T11:57:35.690Z,98402.00
2023-05-11T11:58:44.395Z,98397.19
2023-05-11T11:59:49.545Z,98392.88
2023-05-11T12:00:52.530Z,98390.97
2023-05-11T12:01:57.105Z,98401.78
2023-05-11T12:02:59.797Z,98399.91
2023-05-11T12:04:05.027Z,98395.00
2023-05-11T12:05:19.130Z,98400.91
2023-05-11T12:06:25.097Z,98400.91
2023-05-11T12:07:34.062Z,98399.00
2023-05-11T12:08:38.883Z,98399.59
2023-05-11T12:09:41.108Z,98400.09
2023-05-11T12:10:44.080Z,98394.69
2023-05-11T12:11:47.936Z,98396.00
2023-05-11T12:12:55.108Z,98397.91
2023-05-11T12:14:00.018Z,98396.50
2023-05-11T12:15:03.668Z,98396.00
2023-05-11T12:16:14.299Z,98391.69
2023-05-11T12:17:29.519Z,98396.59
2023-05-11T12:18:32.004Z,98390.16
2023-05-11T12:19:34.213Z,98392.38
2023-05-11T12:20:36.347Z,98393.75
2023-05-11T12:21:38.496Z,98393.25
2023-05-11T12:22:41.169Z,98392.47
2023-05-11T12:23:52.958Z,98392.75
2023-05-11T12:25:00.321Z,98396.03
2023-05-11T12:26:07.239Z,98393.63
2023-05-11T12:27:09.577Z,98390.94
2023-05-11T12:28:12.731Z,98389.63
2023-05-11T12:29:15.897Z,98390.72
2023-05-11T12:30:23.387Z,98386.13
2023-05-11T12:31:27.225Z,98387.53
2023-05-11T12:32:31.216Z,98381.63
2023-05-11T12:33:33.158Z,98380.00
2023-05-11T12:34:35.401Z,98391.31
2023-05-11T12:35:39.443Z,98380.81
2023-05-11T12:36:41.845Z,98387.28
2023-05-11T12:37:44.112Z,98376.50
2023-05-11T12:38:48.397Z,98382.44
2023-05-11T12:39:56.200Z,98382.44
2023-05-11T12:40:58.045Z,98383.22
2023-05-11T12:42:00.075Z,98372.44
2023-05-11T12:43:01.958Z,98378.63
2023-05-11T12:44:04.392Z,98382.94
2023-05-11T12:45:08.143Z,98379.13
2023-05-11T12:46:11.280Z,98379.94